LEALLEBG

Guest
Details From LEAL - Alicante
To LEBG - Burgos
Flight Number -
Tags decoded
Created
Modified
Stats Distance 305 nm / 564 km
Max Altitude 0 ft / 0 m
Waypoints 3
Social Downloads 0
Likes 0
Share VATSIM

Download

Looking for another format? Having issues loading an existing format? Contact us
Advertisement - Login to hide

Notes

Requested: LEAL AMGAR LEBG

Route

LEAL AMGAR LEBG

ID Type Via Altitude Latitude Longitude Leg Dist Tot Dist Heading (true) Name
O LEAL APT - 0 ft / 0 m 38.28217˚ -0.55816˚ - 0 nm - Alicante
AMGAR FIX - 0 ft / 0 m 42.55500˚ -3.25338˚ 284 nm 284 nm 335° / 333° -
O LEBG APT - 0 ft / 0 m 42.35689˚ -3.61422˚ 19 nm 304 nm 233° / 233° Burgos

Altitude Profile

Advertisement - Login to hide

Weather


0- 5 10 15 20 25 30 35+ Temperature / ° C

Clouds and Precipitation
Forecast for 2018-05-23 18:00 UTC. Updated 5 hours ago

Ground ~20,000 ft ~40,000 ft Winds

LEAL

Details ICAO LEAL (ALC)
Name Alicante
Region Spain
Timezone Europe/Madrid (UTC+2.0)
Stats Elevation 141 ft / 43 m (AMSL)
Location 38.282169° -0.558157°
Runways 1
Magnetic Variation 0.232° E

METAR

LEAL 232130Z 05006KT 9999 FEW060 20/15 Q1017 NOSIG

Decode

TAF

TAF TAF LEAL 231700Z 2318/2418 05008KT 9999 FEW040 TX26/2412Z TN17/2406Z PROB30 TEMPO 2402/2407 TSRA FEW040CB BKN050 BECMG 2404/2406 06016KT TEMPO 2408/2418 07022G35KT

Decode

Departure Runways

ID Width Length Bearing (true) Bearing (mag) Surface Threshold Offset Overrun Length
10 148 ft / 45 m 9,799 ft / 2,987 m 100.07° 99.84° Asphalt 0 ft / 0 m 164 ft / 50 m
28 148 ft / 45 m 9,799 ft / 2,987 m 280.09° 279.86° Asphalt 0 ft / 0 m 197 ft / 60 m

LEBG

Details ICAO LEBG (RGS)
Name Burgos
Region Spain
Timezone Europe/Madrid (UTC+2.0)
Stats Elevation 2,961 ft / 903 m (AMSL)
Location 42.356895° -3.614221°
Runways 1
Magnetic Variation 0.733° W

METAR

LEBG 232200Z AUTO 28006KT 7000 -RA SCT010/// BKN057/// 13/12 Q1020

Decode

TAF

Not found

Destination Runways

ID Width Length Bearing (true) Bearing (mag) Surface Threshold Offset Overrun Length
04 148 ft / 45 m 6,423 ft / 1,958 m 43.31° 44.04° Asphalt 0 ft / 0 m 0 ft / 0 m
22 148 ft / 45 m 6,423 ft / 1,958 m 223.32° 224.05° Asphalt 0 ft / 0 m 0 ft / 0 m

Popular Alternatives